Terminal Aerodrome Forecast
Issued by NWS Goodland, KS

Home | Current Version | Previous Version | Text Only | Print | Product List | Glossary On
Versions: 1 2 3 4 5 6 7 8 9 10 11 12
000
FTUS43 KGLD 300534
TAFGLD
TAF
KGLD 300534Z 3006/3106 18011KT P6SM BKN250
     FM301500 19019G29KT P6SM SCT080 BKN250
     FM302300 18015G23KT P6SM SCT015 BKN035
     FM310200 17012KT P6SM SCT009 BKN015=

USA.gov is the U.S. government's official web portal to all federal, state and local government web resources and services.